Messages - vue carte · info · télémétrie · météo · trame · statuts · balises · messages · bulletins · naviguer · bouger · Mon compte
Indicatif:
Affiche:

Charge message trames ...

Les messages APRS sont conservés durant 14 jours. Il est possible de faire une recherche en utilisant les jokers ( *?) après un préfixe.

2019-04-23 22:37:37 EDT: SHLBTP>SHLBTP: Info - Cabinet Temp = 71.2F Vcc = 13.6V
2019-04-23 22:37:40 EDT: ANSRVR>EA1QV-5: N:CQ Removed From Group
2019-04-23 22:37:40 EDT: ANSRVR>EA1QV-5: N:ISS Removed From Group
2019-04-23 22:37:41 EDT: SJTSVR>NWS-WARN: 240300z,SVR_STORM,TXC431
2019-04-23 22:37:41 EDT: SJTSVR>NWS_WARN: 240300z,SVR_STORM,TXC431
2019-04-23 22:38:17 EDT: KJ4ERJ-E2>KJ4ERJ-AP: Bad temperature CRCs after 45 good (252~=87) on pin 6 index 1 from:9(157 1 75 70 127 254 3 16 87)
2019-04-23 22:38:19 EDT: KJ4ERJ-E2>KJ4ERJ-AP: CRC Restored after 2 bad (87==87) on pin 6 index 1 from:9(157 1 75 70 127 255 3 16 87)
2019-04-23 22:38:27 EDT: W2PDN-8>W2PDN-7: yes it does
2019-04-23 22:38:29 EDT: KJ4ERJ-E2>KJ4ERJ-AP: Bad temperature CRCs after 5 good (191~=87) on pin 6 index 1 from:9(156 1 75 70 127 254 3 16 87)
2019-04-23 22:38:30 EDT: KJ4ERJ-E2>KJ4ERJ-AP: CRC Restored after 2 bad (87==87) on pin 6 index 1 from:9(157 1 75 70 127 255 3 16 87)
2019-04-23 22:38:32 EDT: PU1WAX-5>PU1WAX: slow13
2019-04-23 22:38:32 EDT: PU1WAX>PU1WAX-5: AA:Thanks for your message. 73 de Artur
2019-04-23 22:39:03 EDT: SMSGTE>KJ7CJY: @8019790544 hello from peach ????????
2019-04-23 22:39:03 EDT: KJ4ERJ-E2>KJ4ERJ-AP: Bad temperature CRCs after 15 good (97~=87) on pin 6 index 1 from:9(156 1 11 70 127 255 3 16 87)
2019-04-23 22:39:04 EDT: KJ4ERJ-E2>KJ4ERJ-AP: CRC Restored after 2 bad (87==87) on pin 6 index 1 from:9(157 1 75 70 127 255 3 16 87)
2019-04-23 22:39:05 EDT: KJ4ERJ-E2>KJ4ERJ-AP: Bad temperature CRCs after 1 good (197~=87) on pin 6 index 1 from:9(29 1 75 70 127 255 3 16 87)
2019-04-23 22:39:07 EDT: KJ4ERJ-E2>KJ4ERJ-AP: CRC Restored after 2 bad (87==87) on pin 6 index 1 from:9(157 1 75 70 127 255 3 16 87)
2019-04-23 22:39:09 EDT: KJ4ERJ-E2>KJ4ERJ-AP: Bad temperature CRCs after 3 good (87~=86) on pin 6 index 1 from:9(157 1 75 70 127 255 3 16 86)
2019-04-23 22:39:10 EDT: KJ4ERJ-E2>KJ4ERJ-AP: CRC Restored after 2 bad (86==86) on pin 6 index 1 from:9(158 1 75 70 127 255 2 16 86)
2019-04-23 22:39:12 EDT: VK2GJ-2>VK2GJ-7: Directs=VK2RHR-1 VK2AMW-1 VK2BWI-3
2019-04-23 22:39:13 EDT: KJ4ERJ-E2>KJ4ERJ-AP: Bad temperature CRCs after 1 good (66~=87) on pin 6 index 1 from:9(153 1 75 70 127 255 3 16 87)
2019-04-23 22:39:18 EDT: KJ4ERJ-E2>KJ4ERJ-AP: CRC Restored after 3 bad (87==87) on pin 6 index 1 from:9(157 1 75 70 127 255 3 16 87)
2019-04-23 22:39:21 EDT: KJ4ERJ-E2>KJ4ERJ-AP: Bad temperature CRCs after 2 good (96~=86) on pin 6 index 1 from:9(157 1 74 70 127 255 3 16 86)
2019-04-23 22:39:25 EDT: KJ4ERJ-E2>KJ4ERJ-AP: CRC Restored after 4 bad (87==87) on pin 6 index 1 from:9(157 1 75 70 127 255 3 16 87)
2019-04-23 22:39:36 EDT: SMSGTE>KJ7CJY: @8019790544 hello from peach ????????
2019-04-23 22:40:08 EDT: LU1HVK-1>APRS: lu1hvk@qsl.net Saludos de Leones - Cordoba AR...
2019-04-23 22:40:13 EDT: KJ4ERJ-E2>KJ4ERJ-AP: Bad temperature CRCs after 29 good (107~=22) on pin 6 index 1 from:9(158 0 75 70 127 255 2 16 22)
2019-04-23 22:40:14 EDT: KJ4ERJ-E2>KJ4ERJ-AP: CRC Restored after 2 bad (86==86) on pin 6 index 1 from:9(158 1 75 70 127 255 2 16 86)
2019-04-23 22:40:36 EDT: SMSGTE>KJ7CJY: @8019790544 hello from peach ????????
2019-04-23 22:40:36 EDT: N7QME-2>N7QME: dew 51.3 50.7 46.9 47.9 45.6 47.9 49.3 44.9
2019-04-23 22:40:41 EDT: MAFSVR>NWS-WARN: 240245z,SVR_STORM,TXC103-135-301-371-389-475-495
2019-04-23 22:40:41 EDT: MAFSVR>NWS_WARN: 240245z,SVR_STORM,TXC103-135-301-371-389-475-495
2019-04-23 22:41:08 EDT: KJ4ERJ-E2>KJ4ERJ-AP: Bad temperature CRCs after 34 good (217~=86) on pin 6 index 1 from:9(158 1 75 70 126 255 2 16 86)
2019-04-23 22:41:09 EDT: KJ4ERJ-E2>KJ4ERJ-AP: CRC Restored after 2 bad (86==86) on pin 6 index 1 from:9(158 1 75 70 127 255 2 16 86)
2019-04-23 22:42:06 EDT: SMSGTE>KJ7CJY: @8019790544 hello from peach ????????
2019-04-23 22:42:27 EDT: KJ4ERJ-E2>KJ4ERJ-AP: Bad temperature CRCs after 52 good (253~=86) on pin 6 index 1 from:9(158 1 75 70 127 254 2 16 86)
2019-04-23 22:42:30 EDT: KJ4ERJ-E2>KJ4ERJ-AP: CRC Restored after 3 bad (86==86) on pin 6 index 1 from:9(158 1 75 70 127 255 2 16 86)
2019-04-23 22:42:39 EDT: DB0LUH-1>LU1HVK-1: rejUISS54}
2019-04-23 22:42:41 EDT: FWDSVR>NWS-WARN: 240300z,SVR_STORM,TXC093-133
2019-04-23 22:42:41 EDT: FWDSVR>NWS_WARN: 240300z,SVR_STORM,TXC093-133
2019-04-23 22:42:59 EDT: PU7ISS>PU2XJA: boa noite
2019-04-23 22:42:59 EDT: AS64636>DO4BZ: U:sdr.db0ahi # D:user-so.db0ahi # D:router.db0ahi # D:bb-db0uhi.db0ahi # D:db0ahi-db0uhi.db0ahi [1]
2019-04-23 22:43:00 EDT: AS64636>DL1NE: U:sdr.db0ahi # D:user-so.db0ahi # D:router.db0ahi # D:bb-db0uhi.db0ahi # D:db0ahi-db0uhi.db0ahi [2]
2019-04-23 22:43:00 EDT: AS64636>DG4OAE: U:sdr.db0ahi # D:user-so.db0ahi # D:router.db0ahi # D:bb-db0uhi.db0ahi # D:db0ahi-db0uhi.db0ahi [3]
2019-04-23 22:43:03 EDT: KJ4ERJ-E2>KJ4ERJ-AP: Bad temperature CRCs after 21 good (125~=64) on pin 6 index 1 from:9(159 0 75 70 127 255 1 16 64)
2019-04-23 22:43:05 EDT: KJ4ERJ-E2>KJ4ERJ-AP: CRC Restored after 2 bad (64==64) on pin 6 index 1 from:9(159 1 75 70 127 255 1 16 64)
2019-04-23 22:43:20 EDT: KJ4ERJ-E2>KJ4ERJ-AP: Bad temperature CRCs after 8 good (235~=64) on pin 6 index 1 from:9(159 1 75 70 127 254 1 16 64)
2019-04-23 22:43:22 EDT: KJ4ERJ-E2>KJ4ERJ-AP: CRC Restored after 2 bad (64==64) on pin 6 index 1 from:9(159 1 75 70 127 255 1 16 64)
2019-04-23 22:43:40 EDT: KJ4ERJ-E2>KJ4ERJ-AP: Bad temperature CRCs after 11 good (125~=64) on pin 6 index 1 from:9(159 0 75 70 127 255 1 16 64)
2019-04-23 22:43:42 EDT: KJ4ERJ-E2>KJ4ERJ-AP: CRC Restored after 2 bad (64==64) on pin 6 index 1 from:9(159 1 75 70 127 255 1 16 64)
< précédent
FAQ · Blog · Groupe de discussion · Lien vers aprs.fi · Sites AIS · Statut du service · Statistiques de la base de données · Publicité sur aprs.fi · Détails techniques · API · Journal des changements · Modifications futures · Droits et remerciements · Conditions d'utilisation · iPhone/iPad APRS